sensor_id;sensor_type;location;lat;lon;timestamp;P1;durP1;ratioP1;P2;durP2;ratioP2
43413;SDS011;29013;49.676;8.606;2022-08-19T00:03:29;8.84;;;7.63;;
43413;SDS011;29013;49.676;8.606;2022-08-19T00:08:57;9.42;;;7.7;;
43413;SDS011;29013;49.676;8.606;2022-08-19T00:14:25;8.9;;;7.18;;
43413;SDS011;29013;49.676;8.606;2022-08-19T00:19:52;9.23;;;7.74;;
43413;SDS011;29013;49.676;8.606;2022-08-19T00:25:14;9.25;;;7.37;;
43413;SDS011;29013;49.676;8.606;2022-08-19T00:30:40;10.02;;;7.7;;
43413;SDS011;29013;49.676;8.606;2022-08-19T00:36:07;9.8;;;7.34;;
43413;SDS011;29013;49.676;8.606;2022-08-19T00:41:33;10.8;;;7.87;;
43413;SDS011;29013;49.676;8.606;2022-08-19T00:46:56;11.47;;;8.56;;
43413;SDS011;29013;49.676;8.606;2022-08-19T00:52:24;10.4;;;8.25;;
43413;SDS011;29013;49.676;8.606;2022-08-19T00:57:51;10.49;;;8.01;;
43413;SDS011;29013;49.676;8.606;2022-08-19T01:03:18;9.52;;;7.57;;
43413;SDS011;29013;49.676;8.606;2022-08-19T01:08:45;10.79;;;7.82;;
43413;SDS011;29013;49.676;8.606;2022-08-19T01:14:11;10.68;;;8.38;;
43413;SDS011;29013;49.676;8.606;2022-08-19T01:19:39;10.81;;;7.75;;
43413;SDS011;29013;49.676;8.606;2022-08-19T01:25:06;9.99;;;7.58;;
43413;SDS011;29013;49.676;8.606;2022-08-19T01:30:31;9.8;;;7.47;;
43413;SDS011;29013;49.676;8.606;2022-08-19T01:35:54;9.99;;;7.69;;
43413;SDS011;29013;49.676;8.606;2022-08-19T01:41:27;10.26;;;7.71;;
43413;SDS011;29013;49.676;8.606;2022-08-19T01:46:54;9.53;;;7.92;;
43413;SDS011;29013;49.676;8.606;2022-08-19T01:52:23;9.0;;;7.79;;
43413;SDS011;29013;49.676;8.606;2022-08-19T01:57:51;10.7;;;8.19;;
43413;SDS011;29013;49.676;8.606;2022-08-19T02:03:13;9.6;;;7.7;;
43413;SDS011;29013;49.676;8.606;2022-08-19T02:08:43;10.26;;;7.61;;
43413;SDS011;29013;49.676;8.606;2022-08-19T02:14:11;10.4;;;7.69;;
43413;SDS011;29013;49.676;8.606;2022-08-19T02:19:38;11.14;;;8.14;;
43413;SDS011;29013;49.676;8.606;2022-08-19T02:25:07;9.23;;;8.13;;
43413;SDS011;29013;49.676;8.606;2022-08-19T02:30:35;11.29;;;8.76;;
43413;SDS011;29013;49.676;8.606;2022-08-19T02:35:57;10.61;;;8.04;;
43413;SDS011;29013;49.676;8.606;2022-08-19T02:41:23;10.01;;;7.62;;
43413;SDS011;29013;49.676;8.606;2022-08-19T02:46:46;10.07;;;8.35;;
43413;SDS011;29013;49.676;8.606;2022-08-19T02:52:12;11.34;;;8.24;;
43413;SDS011;29013;49.676;8.606;2022-08-19T02:57:34;9.66;;;7.91;;
43413;SDS011;29013;49.676;8.606;2022-08-19T03:03:00;9.75;;;8.44;;
43413;SDS011;29013;49.676;8.606;2022-08-19T03:08:26;9.75;;;8.37;;
43413;SDS011;29013;49.676;8.606;2022-08-19T03:13:50;11.04;;;8.86;;
43413;SDS011;29013;49.676;8.606;2022-08-19T03:19:18;10.31;;;8.49;;
43413;SDS011;29013;49.676;8.606;2022-08-19T03:24:42;10.05;;;8.28;;
43413;SDS011;29013;49.676;8.606;2022-08-19T03:30:06;10.6;;;8.36;;
43413;SDS011;29013;49.676;8.606;2022-08-19T03:35:30;10.93;;;8.16;;
43413;SDS011;29013;49.676;8.606;2022-08-19T03:40:52;11.85;;;8.76;;
43413;SDS011;29013;49.676;8.606;2022-08-19T03:46:20;11.79;;;9.15;;
43413;SDS011;29013;49.676;8.606;2022-08-19T03:51:45;11.93;;;8.91;;
43413;SDS011;29013;49.676;8.606;2022-08-19T03:57:11;12.61;;;8.62;;
43413;SDS011;29013;49.676;8.606;2022-08-19T04:02:38;10.21;;;8.13;;
43413;SDS011;29013;49.676;8.606;2022-08-19T04:08:05;9.92;;;7.75;;
43413;SDS011;29013;49.676;8.606;2022-08-19T04:13:35;11.09;;;8.17;;
43413;SDS011;29013;49.676;8.606;2022-08-19T04:18:59;10.42;;;8.15;;
43413;SDS011;29013;49.676;8.606;2022-08-19T04:24:25;11.22;;;8.69;;
43413;SDS011;29013;49.676;8.606;2022-08-19T04:29:49;12.11;;;8.6;;
43413;SDS011;29013;49.676;8.606;2022-08-19T04:35:17;11.57;;;8.79;;
43413;SDS011;29013;49.676;8.606;2022-08-19T04:40:45;12.7;;;8.95;;
43413;SDS011;29013;49.676;8.606;2022-08-19T04:46:09;13.75;;;9.31;;
43413;SDS011;29013;49.676;8.606;2022-08-19T04:51:35;11.01;;;8.81;;
43413;SDS011;29013;49.676;8.606;2022-08-19T04:56:58;11.07;;;8.71;;
43413;SDS011;29013;49.676;8.606;2022-08-19T05:02:24;12.07;;;8.82;;
43413;SDS011;29013;49.676;8.606;2022-08-19T05:07:49;10.47;;;7.84;;
43413;SDS011;29013;49.676;8.606;2022-08-19T05:13:17;11.05;;;8.75;;
43413;SDS011;29013;49.676;8.606;2022-08-19T05:18:43;12.1;;;9.2;;
43413;SDS011;29013;49.676;8.606;2022-08-19T05:24:09;10.69;;;8.76;;
43413;SDS011;29013;49.676;8.606;2022-08-19T05:29:36;11.76;;;8.73;;
43413;SDS011;29013;49.676;8.606;2022-08-19T05:34:59;12.78;;;8.99;;
43413;SDS011;29013;49.676;8.606;2022-08-19T05:40:23;10.69;;;8.97;;
43413;SDS011;29013;49.676;8.606;2022-08-19T05:45:46;11.36;;;8.66;;
43413;SDS011;29013;49.676;8.606;2022-08-19T05:51:08;12.4;;;8.98;;
43413;SDS011;29013;49.676;8.606;2022-08-19T05:56:34;10.7;;;8.59;;
43413;SDS011;29013;49.676;8.606;2022-08-19T06:02:00;10.63;;;8.34;;
43413;SDS011;29013;49.676;8.606;2022-08-19T06:07:27;12.02;;;7.94;;
43413;SDS011;29013;49.676;8.606;2022-08-19T06:12:54;9.53;;;7.74;;
43413;SDS011;29013;49.676;8.606;2022-08-19T06:18:19;10.7;;;8.2;;
43413;SDS011;29013;49.676;8.606;2022-08-19T06:23:45;12.05;;;8.4;;
43413;SDS011;29013;49.676;8.606;2022-08-19T06:29:13;9.48;;;7.98;;
43413;SDS011;29013;49.676;8.606;2022-08-19T06:34:35;10.49;;;7.81;;
43413;SDS011;29013;49.676;8.606;2022-08-19T06:40:01;11.04;;;8.12;;
43413;SDS011;29013;49.676;8.606;2022-08-19T06:45:25;10.03;;;7.54;;
43413;SDS011;29013;49.676;8.606;2022-08-19T06:50:51;9.48;;;7.8;;
43413;SDS011;29013;49.676;8.606;2022-08-19T06:56:17;7.97;;;7.0;;
43413;SDS011;29013;49.676;8.606;2022-08-19T07:01:42;10.02;;;7.4;;
43413;SDS011;29013;49.676;8.606;2022-08-19T07:07:07;8.46;;;6.63;;
43413;SDS011;29013;49.676;8.606;2022-08-19T07:12:30;10.25;;;7.54;;
43413;SDS011;29013;49.676;8.606;2022-08-19T07:17:55;8.33;;;7.17;;
43413;SDS011;29013;49.676;8.606;2022-08-19T07:23:23;8.57;;;7.19;;
43413;SDS011;29013;49.676;8.606;2022-08-19T07:28:51;9.08;;;7.0;;
43413;SDS011;29013;49.676;8.606;2022-08-19T07:34:17;8.32;;;6.73;;
43413;SDS011;29013;49.676;8.606;2022-08-19T07:39:40;8.03;;;6.92;;
43413;SDS011;29013;49.676;8.606;2022-08-19T07:45:09;9.41;;;6.75;;
43413;SDS011;29013;49.676;8.606;2022-08-19T07:50:33;7.17;;;6.13;;
43413;SDS011;29013;49.676;8.606;2022-08-19T07:55:59;5.71;;;5.74;;
43413;SDS011;29013;49.676;8.606;2022-08-19T08:01:25;7.73;;;5.28;;
43413;SDS011;29013;49.676;8.606;2022-08-19T08:06:51;6.29;;;4.96;;
43413;SDS011;29013;49.676;8.606;2022-08-19T08:12:16;6.19;;;4.57;;
43413;SDS011;29013;49.676;8.606;2022-08-19T08:17:40;8.21;;;6.31;;
43413;SDS011;29013;49.676;8.606;2022-08-19T08:23:06;6.87;;;4.81;;
43413;SDS011;29013;49.676;8.606;2022-08-19T08:28:32;4.92;;;3.98;;
43413;SDS011;29013;49.676;8.606;2022-08-19T08:34:00;4.77;;;4.0;;
43413;SDS011;29013;49.676;8.606;2022-08-19T08:39:31;5.6;;;4.09;;
43413;SDS011;29013;49.676;8.606;2022-08-19T08:44:58;5.74;;;4.23;;
43413;SDS011;29013;49.676;8.606;2022-08-19T08:50:24;5.25;;;3.81;;
43413;SDS011;29013;49.676;8.606;2022-08-19T08:55:48;4.86;;;3.88;;
43413;SDS011;29013;49.676;8.606;2022-08-19T09:01:16;3.9;;;3.75;;
43413;SDS011;29013;49.676;8.606;2022-08-19T09:06:44;4.92;;;3.29;;
43413;SDS011;29013;49.676;8.606;2022-08-19T09:12:10;4.4;;;3.35;;
43413;SDS011;29013;49.676;8.606;2022-08-19T09:17:37;4.56;;;3.08;;
43413;SDS011;29013;49.676;8.606;2022-08-19T09:23:03;4.47;;;3.49;;
43413;SDS011;29013;49.676;8.606;2022-08-19T09:28:29;3.72;;;3.04;;
43413;SDS011;29013;49.676;8.606;2022-08-19T09:33:52;4.76;;;3.42;;
43413;SDS011;29013;49.676;8.606;2022-08-19T09:39:14;4.6;;;3.12;;
43413;SDS011;29013;49.676;8.606;2022-08-19T09:44:37;4.72;;;3.1;;
43413;SDS011;29013;49.676;8.606;2022-08-19T09:50:07;4.98;;;3.37;;
43413;SDS011;29013;49.676;8.606;2022-08-19T09:55:30;3.4;;;2.99;;
43413;SDS011;29013;49.676;8.606;2022-08-19T10:01:00;2.9;;;2.88;;
43413;SDS011;29013;49.676;8.606;2022-08-19T10:06:28;3.89;;;2.44;;
43413;SDS011;29013;49.676;8.606;2022-08-19T10:11:59;4.34;;;2.54;;
43413;SDS011;29013;49.676;8.606;2022-08-19T10:17:26;3.51;;;2.84;;
43413;SDS011;29013;49.676;8.606;2022-08-19T10:22:52;3.2;;;3.21;;
43413;SDS011;29013;49.676;8.606;2022-08-19T10:28:21;4.75;;;3.65;;
43413;SDS011;29013;49.676;8.606;2022-08-19T10:33:47;5.35;;;3.8;;
43413;SDS011;29013;49.676;8.606;2022-08-19T10:39:15;3.73;;;3.19;;
43413;SDS011;29013;49.676;8.606;2022-08-19T10:44:40;3.66;;;2.76;;
43413;SDS011;29013;49.676;8.606;2022-08-19T10:50:08;3.37;;;3.15;;
43413;SDS011;29013;49.676;8.606;2022-08-19T10:55:37;4.33;;;4.09;;
43413;SDS011;29013;49.676;8.606;2022-08-19T11:01:03;4.61;;;3.9;;
43413;SDS011;29013;49.676;8.606;2022-08-19T11:06:32;4.07;;;3.58;;
43413;SDS011;29013;49.676;8.606;2022-08-19T11:11:56;3.53;;;3.28;;
43413;SDS011;29013;49.676;8.606;2022-08-19T11:17:23;5.34;;;4.43;;
43413;SDS011;29013;49.676;8.606;2022-08-19T11:22:47;5.3;;;4.24;;
43413;SDS011;29013;49.676;8.606;2022-08-19T11:28:15;3.48;;;2.69;;
43413;SDS011;29013;49.676;8.606;2022-08-19T11:33:44;4.08;;;3.74;;
43413;SDS011;29013;49.676;8.606;2022-08-19T11:39:09;5.39;;;4.6;;
43413;SDS011;29013;49.676;8.606;2022-08-19T11:44:37;8.86;;;4.72;;
43413;SDS011;29013;49.676;8.606;2022-08-19T11:49:59;7.33;;;6.76;;
43413;SDS011;29013;49.676;8.606;2022-08-19T11:55:25;7.09;;;6.46;;
43413;SDS011;29013;49.676;8.606;2022-08-19T12:00:49;6.16;;;5.49;;
43413;SDS011;29013;49.676;8.606;2022-08-19T12:06:12;7.2;;;6.6;;
43413;SDS011;29013;49.676;8.606;2022-08-19T12:11:34;6.91;;;5.99;;
43413;SDS011;29013;49.676;8.606;2022-08-19T12:16:56;7.46;;;5.7;;
43413;SDS011;29013;49.676;8.606;2022-08-19T12:22:18;6.34;;;5.14;;
43413;SDS011;29013;49.676;8.606;2022-08-19T12:27:40;9.27;;;6.52;;
43413;SDS011;29013;49.676;8.606;2022-08-19T12:33:02;9.07;;;5.91;;
43413;SDS011;29013;49.676;8.606;2022-08-19T12:38:24;6.87;;;5.31;;
43413;SDS011;29013;49.676;8.606;2022-08-19T12:43:46;5.67;;;4.07;;
43413;SDS011;29013;49.676;8.606;2022-08-19T12:49:08;4.13;;;3.53;;
43413;SDS011;29013;49.676;8.606;2022-08-19T12:54:36;5.21;;;3.88;;
43413;SDS011;29013;49.676;8.606;2022-08-19T13:00:02;4.52;;;4.06;;
43413;SDS011;29013;49.676;8.606;2022-08-19T13:05:27;4.19;;;3.56;;
43413;SDS011;29013;49.676;8.606;2022-08-19T13:10:50;3.38;;;3.08;;
43413;SDS011;29013;49.676;8.606;2022-08-19T13:16:18;3.59;;;3.04;;
43413;SDS011;29013;49.676;8.606;2022-08-19T13:21:42;3.55;;;2.4;;
43413;SDS011;29013;49.676;8.606;2022-08-19T13:27:10;3.39;;;2.89;;
43413;SDS011;29013;49.676;8.606;2022-08-19T13:32:37;3.47;;;2.7;;
43413;SDS011;29013;49.676;8.606;2022-08-19T13:38:00;2.9;;;2.7;;
43413;SDS011;29013;49.676;8.606;2022-08-19T13:43:27;3.18;;;2.96;;
43413;SDS011;29013;49.676;8.606;2022-08-19T13:48:55;3.22;;;3.01;;
43413;SDS011;29013;49.676;8.606;2022-08-19T13:54:23;3.33;;;2.89;;
43413;SDS011;29013;49.676;8.606;2022-08-19T13:59:45;2.79;;;2.57;;
43413;SDS011;29013;49.676;8.606;2022-08-19T14:05:12;5.63;;;3.16;;
43413;SDS011;29013;49.676;8.606;2022-08-19T14:10:39;5.09;;;3.47;;
43413;SDS011;29013;49.676;8.606;2022-08-19T14:16:10;4.51;;;3.34;;
43413;SDS011;29013;49.676;8.606;2022-08-19T14:21:37;3.95;;;3.36;;
43413;SDS011;29013;49.676;8.606;2022-08-19T14:27:05;5.82;;;3.32;;
43413;SDS011;29013;49.676;8.606;2022-08-19T14:32:29;3.57;;;3.06;;
43413;SDS011;29013;49.676;8.606;2022-08-19T14:37:57;5.68;;;3.15;;
43413;SDS011;29013;49.676;8.606;2022-08-19T14:43:23;5.45;;;3.06;;
43413;SDS011;29013;49.676;8.606;2022-08-19T14:48:49;4.27;;;3.29;;
43413;SDS011;29013;49.676;8.606;2022-08-19T14:54:16;3.15;;;2.91;;
43413;SDS011;29013;49.676;8.606;2022-08-19T14:59:42;3.24;;;2.83;;
43413;SDS011;29013;49.676;8.606;2022-08-19T15:05:05;4.86;;;2.66;;
43413;SDS011;29013;49.676;8.606;2022-08-19T15:10:31;4.75;;;2.87;;
43413;SDS011;29013;49.676;8.606;2022-08-19T15:15:58;3.39;;;2.34;;
43413;SDS011;29013;49.676;8.606;2022-08-19T15:21:21;3.13;;;2.59;;
43413;SDS011;29013;49.676;8.606;2022-08-19T15:26:46;5.05;;;2.45;;
43413;SDS011;29013;49.676;8.606;2022-08-19T15:32:11;2.21;;;1.93;;
43413;SDS011;29013;49.676;8.606;2022-08-19T15:37:36;4.46;;;2.72;;
43413;SDS011;29013;49.676;8.606;2022-08-19T15:43:03;3.1;;;2.14;;
43413;SDS011;29013;49.676;8.606;2022-08-19T15:48:30;4.48;;;2.21;;
43413;SDS011;29013;49.676;8.606;2022-08-19T15:53:53;2.57;;;2.29;;
43413;SDS011;29013;49.676;8.606;2022-08-19T15:59:18;3.39;;;2.39;;
43413;SDS011;29013;49.676;8.606;2022-08-19T16:04:40;7.18;;;2.55;;
43413;SDS011;29013;49.676;8.606;2022-08-19T16:10:02;5.08;;;2.33;;
43413;SDS011;29013;49.676;8.606;2022-08-19T16:15:29;3.78;;;2.47;;
43413;SDS011;29013;49.676;8.606;2022-08-19T16:20:56;4.04;;;2.5;;
43413;SDS011;29013;49.676;8.606;2022-08-19T16:26:19;6.29;;;2.5;;
43413;SDS011;29013;49.676;8.606;2022-08-19T16:31:43;2.96;;;2.32;;
43413;SDS011;29013;49.676;8.606;2022-08-19T16:37:11;3.08;;;2.69;;
43413;SDS011;29013;49.676;8.606;2022-08-19T16:42:43;3.3;;;2.73;;
43413;SDS011;29013;49.676;8.606;2022-08-19T16:48:10;3.02;;;2.6;;
43413;SDS011;29013;49.676;8.606;2022-08-19T16:53:37;3.22;;;2.86;;
43413;SDS011;29013;49.676;8.606;2022-08-19T16:59:02;5.23;;;3.04;;
43413;SDS011;29013;49.676;8.606;2022-08-19T17:04:28;5.58;;;2.8;;
43413;SDS011;29013;49.676;8.606;2022-08-19T17:09:56;3.38;;;3.04;;
43413;SDS011;29013;49.676;8.606;2022-08-19T17:15:18;4.98;;;2.9;;
43413;SDS011;29013;49.676;8.606;2022-08-19T17:20:47;2.91;;;2.67;;
43413;SDS011;29013;49.676;8.606;2022-08-19T17:26:14;3.77;;;2.71;;
43413;SDS011;29013;49.676;8.606;2022-08-19T17:31:37;4.89;;;2.78;;
43413;SDS011;29013;49.676;8.606;2022-08-19T17:37:00;4.01;;;2.88;;
43413;SDS011;29013;49.676;8.606;2022-08-19T17:42:22;5.1;;;3.39;;
43413;SDS011;29013;49.676;8.606;2022-08-19T17:47:44;4.18;;;3.32;;
43413;SDS011;29013;49.676;8.606;2022-08-19T17:53:13;5.9;;;3.6;;
43413;SDS011;29013;49.676;8.606;2022-08-19T17:58:38;4.48;;;3.2;;
43413;SDS011;29013;49.676;8.606;2022-08-19T18:04:03;3.66;;;3.33;;
43413;SDS011;29013;49.676;8.606;2022-08-19T18:09:26;6.87;;;3.13;;
43413;SDS011;29013;49.676;8.606;2022-08-19T18:14:47;4.83;;;3.36;;
43413;SDS011;29013;49.676;8.606;2022-08-19T18:20:10;11.15;;;3.2;;
43413;SDS011;29013;49.676;8.606;2022-08-19T18:25:31;5.26;;;3.25;;
43413;SDS011;29013;49.676;8.606;2022-08-19T18:30:57;3.47;;;3.17;;
43413;SDS011;29013;49.676;8.606;2022-08-19T18:36:24;4.8;;;3.74;;
43413;SDS011;29013;49.676;8.606;2022-08-19T18:41:46;5.53;;;3.81;;
43413;SDS011;29013;49.676;8.606;2022-08-19T18:47:14;4.36;;;3.55;;
43413;SDS011;29013;49.676;8.606;2022-08-19T18:52:41;4.74;;;3.53;;
43413;SDS011;29013;49.676;8.606;2022-08-19T18:58:09;5.05;;;3.54;;
43413;SDS011;29013;49.676;8.606;2022-08-19T19:03:36;4.52;;;3.76;;
43413;SDS011;29013;49.676;8.606;2022-08-19T19:08:59;4.98;;;3.56;;
43413;SDS011;29013;49.676;8.606;2022-08-19T19:14:27;5.45;;;3.28;;
43413;SDS011;29013;49.676;8.606;2022-08-19T19:19:53;6.02;;;3.38;;
43413;SDS011;29013;49.676;8.606;2022-08-19T19:25:18;8.98;;;4.06;;
43413;SDS011;29013;49.676;8.606;2022-08-19T19:30:40;7.37;;;4.1;;
43413;SDS011;29013;49.676;8.606;2022-08-19T19:36:06;5.15;;;3.33;;
43413;SDS011;29013;49.676;8.606;2022-08-19T19:41:30;4.75;;;3.17;;
43413;SDS011;29013;49.676;8.606;2022-08-19T19:46:54;5.91;;;3.22;;
43413;SDS011;29013;49.676;8.606;2022-08-19T19:52:21;4.98;;;3.33;;
43413;SDS011;29013;49.676;8.606;2022-08-19T19:57:45;4.66;;;3.52;;
43413;SDS011;29013;49.676;8.606;2022-08-19T20:03:07;4.26;;;3.45;;
43413;SDS011;29013;49.676;8.606;2022-08-19T20:08:32;4.18;;;3.45;;
43413;SDS011;29013;49.676;8.606;2022-08-19T20:13:58;4.02;;;3.24;;
43413;SDS011;29013;49.676;8.606;2022-08-19T20:19:25;5.81;;;3.75;;
43413;SDS011;29013;49.676;8.606;2022-08-19T20:24:49;6.14;;;3.13;;
43413;SDS011;29013;49.676;8.606;2022-08-19T20:30:15;3.33;;;3.13;;
43413;SDS011;29013;49.676;8.606;2022-08-19T20:35:38;4.36;;;3.62;;
43413;SDS011;29013;49.676;8.606;2022-08-19T20:41:02;5.76;;;3.43;;
43413;SDS011;29013;49.676;8.606;2022-08-19T20:46:29;5.48;;;3.75;;
43413;SDS011;29013;49.676;8.606;2022-08-19T20:51:55;4.95;;;3.42;;
43413;SDS011;29013;49.676;8.606;2022-08-19T20:57:19;5.28;;;3.63;;
43413;SDS011;29013;49.676;8.606;2022-08-19T21:02:46;6.56;;;3.49;;
43413;SDS011;29013;49.676;8.606;2022-08-19T21:08:11;4.38;;;3.45;;
43413;SDS011;29013;49.676;8.606;2022-08-19T21:13:38;5.47;;;3.64;;
43413;SDS011;29013;49.676;8.606;2022-08-19T21:19:04;6.15;;;3.62;;
43413;SDS011;29013;49.676;8.606;2022-08-19T21:24:32;6.0;;;3.7;;
43413;SDS011;29013;49.676;8.606;2022-08-19T21:29:58;5.77;;;3.96;;
43413;SDS011;29013;49.676;8.606;2022-08-19T21:35:24;5.79;;;3.62;;
43413;SDS011;29013;49.676;8.606;2022-08-19T21:40:46;5.17;;;3.89;;
43413;SDS011;29013;49.676;8.606;2022-08-19T21:46:10;4.79;;;3.8;;
43413;SDS011;29013;49.676;8.606;2022-08-19T21:51:33;6.3;;;3.46;;
43413;SDS011;29013;49.676;8.606;2022-08-19T21:56:59;5.01;;;3.97;;
43413;SDS011;29013;49.676;8.606;2022-08-19T22:02:24;4.86;;;3.78;;
43413;SDS011;29013;49.676;8.606;2022-08-19T22:07:48;5.96;;;4.37;;
43413;SDS011;29013;49.676;8.606;2022-08-19T22:13:15;6.01;;;3.94;;
43413;SDS011;29013;49.676;8.606;2022-08-19T22:18:38;7.2;;;4.17;;
43413;SDS011;29013;49.676;8.606;2022-08-19T22:24:05;6.37;;;4.36;;
43413;SDS011;29013;49.676;8.606;2022-08-19T22:29:30;6.62;;;4.35;;
43413;SDS011;29013;49.676;8.606;2022-08-19T22:34:57;4.66;;;3.89;;
43413;SDS011;29013;49.676;8.606;2022-08-19T22:40:24;5.35;;;3.72;;
43413;SDS011;29013;49.676;8.606;2022-08-19T22:45:52;7.36;;;4.59;;
43413;SDS011;29013;49.676;8.606;2022-08-19T22:51:16;8.29;;;4.48;;
43413;SDS011;29013;49.676;8.606;2022-08-19T22:56:41;10.83;;;5.03;;
43413;SDS011;29013;49.676;8.606;2022-08-19T23:02:09;6.18;;;4.26;;
43413;SDS011;29013;49.676;8.606;2022-08-19T23:07:30;9.1;;;4.52;;
43413;SDS011;29013;49.676;8.606;2022-08-19T23:12:57;6.54;;;4.19;;
43413;SDS011;29013;49.676;8.606;2022-08-19T23:18:23;8.06;;;4.3;;
43413;SDS011;29013;49.676;8.606;2022-08-19T23:23:45;8.06;;;4.58;;
43413;SDS011;29013;49.676;8.606;2022-08-19T23:29:11;5.6;;;4.6;;
43413;SDS011;29013;49.676;8.606;2022-08-19T23:34:39;5.95;;;4.09;;
43413;SDS011;29013;49.676;8.606;2022-08-19T23:40:08;6.58;;;4.1;;
43413;SDS011;29013;49.676;8.606;2022-08-19T23:45:31;7.02;;;4.62;;
43413;SDS011;29013;49.676;8.606;2022-08-19T23:50:56;6.84;;;4.53;;
43413;SDS011;29013;49.676;8.606;2022-08-19T23:56:20;6.36;;;4.51;;
